UPDATE Mit 1. Juli wird auf eine neue Wetterseite umgestellt
Wer schon probieren möchte kann unter https://wetter.hildner.at gerne testen
Die Seite befindet sich noch im Aufbau

Rindlberg West Mehr Informationen Rindlberg West


Stuetzi - Rindlberg Ost Mehr Informationen Stuetzi - Rindlberg Ost


Regenradar Mehr Informationen rain snow radar


Sie finden meine Wetter-Infos auch auf:

Weather Underground

AWEKAS



METAR-Meldungen aus der Umgebung

   
LOWL - Linz
Aktualisierung: 06-12-2021 17:50
Stark bewölkt  
Stark bewölkt  
   Wind: NW 3.7 km/h
Wind: NW 3.7 km/h
Temperatur: 1°C
Taupunkt: 0°C
Luftfeuchte: 93%
Luftdruck: 1014 hPa
Wolken: Stark bewölkt
Sichtbarkeit: Mehr als 10 km
Bewölkung: leicht bewölkt 1600 ft,
Stark bewölkt 2000 ft
LOWL 061650Z AUTO 31002KT 9999 FEW016 BKN020 01/M00 Q1014 NOSIG
LOWW - Vienna
Aktualisierung: 06-12-2021 18:20
Teilweise bewölkt  
Teilweise bewölkt  
   Wind: NNW 18.5 km/h
Wind: NNW 18.5 km/h
Temperatur: 2°C
Gefühlt: -2°C
Taupunkt: -2°C
Luftfeuchte: 75%
Luftdruck: 1013 hPa
Wolken: Teilweise bewölkt
Sichtbarkeit: Mehr als 10 km
Bewölkung: leicht bewölkt 2500 ft,
Teilweise bewölkt 3500 ft
LOWW 061720Z 33010KT 9999 FEW025 SCT035 02/M02 Q1013 NOSIG
 

Script entwickelt von  Saratoga-weather.org Angepasst für das Template von  Weerstation Leuven